Terminal Aerodrome Forecast
Issued by NWS St Louis, MO

Home | Current Version | Previous Version | Text Only | Print | Product List | Glossary On
Versions: 1 2 3 4 5 6 7 8 9 10 11 12 13
940
FTUS43 KLSX 252320
TAFCOU
TAF
KCOU 252320Z 2600/2624 14005KT P6SM FEW200
     FM261400 20004KT P6SM SCT090
     FM261800 26005KT P6SM BKN060
     FM262200 31007KT P6SM BKN060=

USA.gov is the U.S. government's official web portal to all federal, state and local government web resources and services.